KLAL/LAL METAR and TAF weather

Enter ICAO airport designator
Station Type Date Time Source
KLAL METAR 2022/10/01 05:55 UTC NOAA

KLAL 010555Z AUTO 01003KT 10SM CLR 19/17 A2983 RMK AO2 T01900165 10211 20189


Station Type Date Time Source
KLAL Decoded METAR 2022/10/01 05:55 UTC NOAA

Lakeland Regional, FL, United States (KLAL) 27-59N 082-01W
Oct 01, 2022 - 01:55 AM EDT / 2022.10.01 0555 UTC
Wind: from the N (010 degrees) at 3 MPH (3 KT):0
Visibility: 10 mile(s):0
Sky conditions: clear
Temperature: 66.2 F (19.0 C)
Dew Point: 61.7 F (16.5 C)
Relative Humidity: 85%
Pressure (altimeter): 29.83 in. Hg (1010 hPa)
ob: KLAL 010555Z AUTO 01003KT 10SM CLR 19/17 A2983 RMK AO2 T01900165 10211 20189
cycle: 6

Station Type Date Time Source
KLAL TAF 2022/10/01 06:40 UTC NOAA

TAF KLAL 010538Z 0106/0206 35005KT P6SM SCT040
TEMPO 0106/0109 BKN040
FM011900 31005KT P6SM SCT045
FM020200 33003KT P6SM FEW040

Example: see airport list